Akron, Indiana
Current Conditions -  °F | °C
As of 6:55 PM on Monday 20 Oct 2014 (Local Time) from KRCR Reporting Station
Broken Clouds Broken Clouds  
Wind Chill: 59°   Ceiling: 6500
Heat Index: 59°   Visibility: 10mi
Dew Point: 48°   Wind: 13mph
Humidity: 67%   Direction: 330°NNW
Pressure: 29.89"   Gusts: 17mph
Location:  41.04°N, 86.03°W
Report Text: KRCR 202255Z AUTO 33011G15KT 10SM SCT055 BKN065 15/09 A2989 RMK AO2
Loading
Personal Weather Stations






























Interactive Weather Map
Tropical Storm Tracking
New forecast layout! Learn more

10-Day Weather Forecast

Advertisements
Track Severe Weather on mobile